TAM3244 SBGR-SBPS
Flight info
| Callsign | TAM3244 |
|---|---|
| Flight time | 1h 27m |
| Altitude | 37000 |
| Route | AMVU6A VUMEV UZ14 NITLU UZ16 OSUNO OSUN1A |
| Aircraft | A320/M-SDFGHIRWY/LB1 |
Departure
| Time | 2026-04-17 01:20 |
|---|---|
| Airport | São Paulo/Guarulhos–Governor André Franco Montoro International Airport (SBGR) |
Arrival
| Time | 2026-04-17 02:48 |
|---|---|
| Airport | Porto Seguro International Airport (SBPS) |
| Time | Latitude | Longitude | Altitude | Speed | Heading |
|---|---|---|---|---|---|
| 2026-04-17 00:41 | -23.42867 | -46.48344 | 2465 ft | 0 kts | 84° |
| 2026-04-17 01:12 | -23.42867 | -46.48347 | 2465 ft | 2 kts | 85° |
| 2026-04-17 01:12 | -23.42868 | -46.48375 | 2465 ft | 4 kts | 94° |
| 2026-04-17 01:12 | -23.42864 | -46.48404 | 2468 ft | 4 kts | 107° |
| 2026-04-17 01:12 | -23.42854 | -46.48431 | 2465 ft | 4 kts | 128° |
| 2026-04-17 01:13 | -23.42835 | -46.48448 | 2468 ft | 4 kts | 168° |
| 2026-04-17 01:13 | -23.42827 | -46.48450 | 2465 ft | 0 kts | 180° |
| 2026-04-17 01:16 | -23.42829 | -46.48450 | 2467 ft | 1 kts | 180° |
| 2026-04-17 01:17 | -23.42839 | -46.48450 | 2466 ft | 3 kts | 180° |
| 2026-04-17 01:17 | -23.42880 | -46.48450 | 2469 ft | 6 kts | 180° |
| 2026-04-17 01:17 | -23.42911 | -46.48450 | 2465 ft | 7 kts | 180° |
| 2026-04-17 01:17 | -23.42971 | -46.48450 | 2468 ft | 10 kts | 180° |
| 2026-04-17 01:18 | -23.43048 | -46.48449 | 2466 ft | 12 kts | 175° |
| 2026-04-17 01:18 | -23.43132 | -46.48418 | 2467 ft | 13 kts | 161° |
| 2026-04-17 01:18 | -23.43222 | -46.48388 | 2468 ft | 13 kts | 163° |
| 2026-04-17 01:18 | -23.43297 | -46.48365 | 2469 ft | 9 kts | 164° |
| 2026-04-17 01:19 | -23.43383 | -46.48339 | 2463 ft | 16 kts | 164° |
| 2026-04-17 01:19 | -23.43439 | -46.48312 | 2464 ft | 3 kts | 77° |
| 2026-04-17 01:19 | -23.43400 | -46.48228 | 2462 ft | 23 kts | 70° |
| 2026-04-17 01:19 | -23.43298 | -46.47851 | 2464 ft | 84 kts | 73° |
| 2026-04-17 01:20 | -23.43081 | -46.47043 | 2466 ft | 136 kts | 73° |
| 2026-04-17 01:20 | -23.42778 | -46.45922 | 2466 ft | 176 kts | 74° |
| 2026-04-17 01:20 | -23.42440 | -46.44650 | 3113 ft | 167 kts | 74° |
| 2026-04-17 01:20 | -23.42110 | -46.43444 | 3638 ft | 172 kts | 72° |
| 2026-04-17 01:21 | -23.41736 | -46.42128 | 3798 ft | 196 kts | 72° |
| 2026-04-17 01:21 | -23.41312 | -46.40639 | 4030 ft | 216 kts | 72° |
| 2026-04-17 01:21 | -23.40835 | -46.38974 | 4224 ft | 245 kts | 72° |
| 2026-04-17 01:21 | -23.40286 | -46.37118 | 4592 ft | 267 kts | 71° |
| 2026-04-17 01:22 | -23.39495 | -46.35269 | 5306 ft | 273 kts | 56° |
| 2026-04-17 01:22 | -23.38461 | -46.33510 | 6052 ft | 279 kts | 56° |
| 2026-04-17 01:22 | -23.37404 | -46.31711 | 6828 ft | 283 kts | 56° |
| 2026-04-17 01:22 | -23.36336 | -46.29896 | 7617 ft | 286 kts | 57° |
| 2026-04-17 01:23 | -23.35258 | -46.28066 | 8392 ft | 290 kts | 57° |
| 2026-04-17 01:23 | -23.34164 | -46.26201 | 9167 ft | 293 kts | 57° |
| 2026-04-17 01:23 | -23.32816 | -46.24536 | 9897 ft | 297 kts | 37° |
| 2026-04-17 01:23 | -23.31027 | -46.23347 | 10385 ft | 310 kts | 29° |
| 2026-04-17 01:24 | -23.29080 | -46.22158 | 10564 ft | 333 kts | 29° |
| 2026-04-17 01:24 | -23.26987 | -46.20893 | 10705 ft | 355 kts | 29° |
| 2026-04-17 01:24 | -23.24785 | -46.19567 | 11124 ft | 366 kts | 29° |
| 2026-04-17 01:24 | -23.22538 | -46.18212 | 11716 ft | 372 kts | 29° |
| 2026-04-17 01:25 | -23.20261 | -46.16836 | 12327 ft | 377 kts | 29° |
| 2026-04-17 01:25 | -23.17963 | -46.15444 | 12955 ft | 381 kts | 29° |
| 2026-04-17 01:25 | -23.15637 | -46.14032 | 13572 ft | 385 kts | 29° |
| 2026-04-17 01:25 | -23.13288 | -46.12607 | 14153 ft | 388 kts | 29° |
| 2026-04-17 01:26 | -23.10918 | -46.11170 | 14696 ft | 391 kts | 28° |
| 2026-04-17 01:26 | -23.08527 | -46.09725 | 15259 ft | 395 kts | 28° |
| 2026-04-17 01:26 | -23.06123 | -46.08274 | 15813 ft | 398 kts | 28° |
| 2026-04-17 01:26 | -23.03693 | -46.06807 | 16377 ft | 401 kts | 28° |
| 2026-04-17 01:27 | -23.01243 | -46.05327 | 16940 ft | 404 kts | 27° |
| 2026-04-17 01:27 | -22.98775 | -46.03834 | 17509 ft | 408 kts | 27° |
| 2026-04-17 01:27 | -22.96286 | -46.02329 | 18080 ft | 411 kts | 27° |
| 2026-04-17 01:27 | -22.93780 | -46.00817 | 18594 ft | 415 kts | 27° |
| 2026-04-17 01:28 | -22.91245 | -45.99290 | 19073 ft | 418 kts | 27° |
| 2026-04-17 01:28 | -22.88698 | -45.97733 | 19567 ft | 422 kts | 30° |
| 2026-04-17 01:28 | -22.86256 | -45.95927 | 20065 ft | 426 kts | 33° |
| 2026-04-17 01:28 | -22.83819 | -45.94083 | 20550 ft | 430 kts | 33° |
| 2026-04-17 01:29 | -22.81386 | -45.92240 | 21018 ft | 433 kts | 33° |
| 2026-04-17 01:29 | -22.76406 | -45.88474 | 21965 ft | 441 kts | 32° |
| 2026-04-17 01:29 | -22.73877 | -45.86569 | 22437 ft | 444 kts | 32° |
| 2026-04-17 01:30 | -22.71329 | -45.84654 | 22895 ft | 448 kts | 32° |
| 2026-04-17 01:30 | -22.68755 | -45.82721 | 23360 ft | 452 kts | 32° |
| 2026-04-17 01:30 | -22.66164 | -45.80774 | 23781 ft | 455 kts | 32° |
| 2026-04-17 01:30 | -22.63557 | -45.78818 | 24162 ft | 458 kts | 32° |
| 2026-04-17 01:31 | -22.60928 | -45.76847 | 24551 ft | 461 kts | 32° |
| 2026-04-17 01:31 | -22.58286 | -45.74868 | 24956 ft | 463 kts | 32° |
| 2026-04-17 01:31 | -22.55634 | -45.72878 | 25342 ft | 466 kts | 32° |
| 2026-04-17 01:31 | -22.52963 | -45.70873 | 25719 ft | 469 kts | 32° |
| 2026-04-17 01:32 | -22.50273 | -45.68855 | 26102 ft | 471 kts | 31° |
| 2026-04-17 01:32 | -22.47569 | -45.66830 | 26469 ft | 474 kts | 31° |
| 2026-04-17 01:32 | -22.44857 | -45.64798 | 26823 ft | 477 kts | 31° |
| 2026-04-17 01:32 | -22.42120 | -45.62751 | 27172 ft | 479 kts | 31° |
| 2026-04-17 01:33 | -22.39369 | -45.60695 | 27514 ft | 481 kts | 31° |
| 2026-04-17 01:33 | -22.36623 | -45.58642 | 27986 ft | 481 kts | 31° |
| 2026-04-17 01:33 | -22.33874 | -45.56587 | 28464 ft | 480 kts | 31° |
| 2026-04-17 01:33 | -22.31133 | -45.54536 | 28961 ft | 479 kts | 30° |
| 2026-04-17 01:34 | -22.28396 | -45.52491 | 29444 ft | 478 kts | 30° |
| 2026-04-17 01:34 | -22.25672 | -45.50457 | 29941 ft | 477 kts | 30° |
| 2026-04-17 01:34 | -22.22944 | -45.48423 | 30363 ft | 477 kts | 30° |
| 2026-04-17 01:34 | -22.20207 | -45.46386 | 30700 ft | 479 kts | 30° |
| 2026-04-17 01:35 | -22.17459 | -45.44345 | 31044 ft | 480 kts | 30° |
| 2026-04-17 01:35 | -22.14706 | -45.42299 | 31389 ft | 482 kts | 30° |
| 2026-04-17 01:35 | -22.11943 | -45.40241 | 31740 ft | 483 kts | 30° |
| 2026-04-17 01:35 | -22.09172 | -45.38173 | 32087 ft | 485 kts | 30° |
| 2026-04-17 01:36 | -22.06402 | -45.36106 | 32440 ft | 486 kts | 30° |
| 2026-04-17 01:36 | -22.03617 | -45.34025 | 32798 ft | 487 kts | 31° |
| 2026-04-17 01:36 | -22.00877 | -45.31871 | 33148 ft | 490 kts | 33° |
| 2026-04-17 01:36 | -21.98176 | -45.29620 | 33487 ft | 492 kts | 34° |
| 2026-04-17 01:37 | -21.95501 | -45.27309 | 33828 ft | 494 kts | 35° |
| 2026-04-17 01:37 | -21.92832 | -45.24972 | 34162 ft | 495 kts | 35° |
| 2026-04-17 01:37 | -21.90155 | -45.22639 | 34493 ft | 494 kts | 35° |
| 2026-04-17 01:37 | -21.87476 | -45.20332 | 34868 ft | 493 kts | 34° |
| 2026-04-17 01:38 | -21.84784 | -45.18048 | 35225 ft | 492 kts | 34° |
| 2026-04-17 01:38 | -21.82092 | -45.15789 | 35569 ft | 491 kts | 34° |
| 2026-04-17 01:38 | -21.79393 | -45.13536 | 35895 ft | 491 kts | 34° |
| 2026-04-17 01:38 | -21.76694 | -45.11284 | 36215 ft | 490 kts | 34° |
| 2026-04-17 01:39 | -21.74006 | -45.09038 | 36521 ft | 490 kts | 34° |
| 2026-04-17 01:39 | -21.71350 | -45.06812 | 36818 ft | 490 kts | 34° |
| 2026-04-17 01:39 | -21.68663 | -45.04549 | 37000 ft | 491 kts | 34° |
| 2026-04-17 01:40 | -21.63230 | -44.99973 | 37032 ft | 501 kts | 34° |
| 2026-04-17 01:40 | -21.57726 | -44.95357 | 37028 ft | 502 kts | 34° |
| 2026-04-17 01:41 | -21.52186 | -44.90711 | 37029 ft | 502 kts | 34° |
| 2026-04-17 01:41 | -21.46717 | -44.86139 | 37026 ft | 502 kts | 34° |
| 2026-04-17 01:42 | -21.41212 | -44.81534 | 37017 ft | 502 kts | 34° |
| 2026-04-17 01:42 | -21.35705 | -44.76939 | 37040 ft | 501 kts | 34° |
| 2026-04-17 01:43 | -21.30197 | -44.72351 | 37042 ft | 501 kts | 34° |
| 2026-04-17 01:43 | -21.24703 | -44.67762 | 37046 ft | 501 kts | 34° |
| 2026-04-17 01:44 | -21.19214 | -44.63179 | 37051 ft | 500 kts | 34° |
| 2026-04-17 01:44 | -21.13726 | -44.58606 | 37062 ft | 499 kts | 34° |
| 2026-04-17 01:45 | -21.08240 | -44.54055 | 37062 ft | 499 kts | 34° |
| 2026-04-17 01:45 | -21.02752 | -44.49498 | 37047 ft | 499 kts | 34° |
| 2026-04-17 01:46 | -20.97268 | -44.44940 | 37054 ft | 499 kts | 34° |
| 2026-04-17 01:46 | -20.91790 | -44.40388 | 37059 ft | 499 kts | 34° |
| 2026-04-17 01:47 | -20.86297 | -44.35834 | 37038 ft | 499 kts | 34° |
| 2026-04-17 01:47 | -20.80812 | -44.31299 | 37064 ft | 499 kts | 34° |
| 2026-04-17 01:48 | -20.75353 | -44.26801 | 37051 ft | 498 kts | 34° |
| 2026-04-17 01:48 | -20.69836 | -44.22245 | 37068 ft | 498 kts | 34° |
| 2026-04-17 01:49 | -20.64395 | -44.17751 | 37054 ft | 498 kts | 34° |
| 2026-04-17 01:49 | -20.58933 | -44.13202 | 37060 ft | 498 kts | 35° |
| 2026-04-17 01:50 | -20.53530 | -44.08589 | 37041 ft | 499 kts | 39° |
| 2026-04-17 01:50 | -20.49110 | -44.02868 | 37047 ft | 503 kts | 59° |
| 2026-04-17 01:51 | -20.45737 | -43.96341 | 37060 ft | 502 kts | 60° |
| 2026-04-17 01:51 | -20.42354 | -43.89823 | 37066 ft | 502 kts | 60° |
| 2026-04-17 01:52 | -20.38975 | -43.83315 | 37058 ft | 501 kts | 60° |
| 2026-04-17 01:52 | -20.35610 | -43.76807 | 37052 ft | 502 kts | 60° |
| 2026-04-17 01:53 | -20.32237 | -43.70297 | 37066 ft | 501 kts | 60° |
| 2026-04-17 01:53 | -20.28871 | -43.63814 | 37069 ft | 499 kts | 60° |
| 2026-04-17 01:54 | -20.25511 | -43.57348 | 37067 ft | 499 kts | 60° |
| 2026-04-17 01:54 | -20.22142 | -43.50886 | 37050 ft | 499 kts | 60° |
| 2026-04-17 01:55 | -20.18774 | -43.44428 | 37042 ft | 499 kts | 60° |
| 2026-04-17 01:55 | -20.15405 | -43.37979 | 37057 ft | 498 kts | 60° |
| 2026-04-17 01:56 | -20.12043 | -43.31547 | 37050 ft | 497 kts | 60° |
| 2026-04-17 01:56 | -20.08756 | -43.25077 | 37044 ft | 497 kts | 62° |
| 2026-04-17 01:57 | -20.05649 | -43.18513 | 37029 ft | 496 kts | 63° |
| 2026-04-17 01:57 | -20.02591 | -43.11996 | 37018 ft | 492 kts | 63° |
| 2026-04-17 01:58 | -19.99570 | -43.05610 | 37016 ft | 483 kts | 63° |
| 2026-04-17 01:58 | -19.96511 | -42.99145 | 37015 ft | 494 kts | 63° |
| 2026-04-17 01:59 | -19.93097 | -42.92844 | 37005 ft | 490 kts | 49° |
| 2026-04-17 01:59 | -19.88348 | -42.87712 | 36996 ft | 486 kts | 40° |
| 2026-04-17 02:00 | -19.83458 | -42.82776 | 37000 ft | 484 kts | 44° |
| 2026-04-17 02:00 | -19.78955 | -42.77451 | 37003 ft | 486 kts | 49° |
| 2026-04-17 02:01 | -19.74657 | -42.71905 | 37003 ft | 486 kts | 49° |
| 2026-04-17 02:01 | -19.70324 | -42.66397 | 36999 ft | 486 kts | 48° |
| 2026-04-17 02:02 | -19.65904 | -42.60967 | 36997 ft | 486 kts | 47° |
| 2026-04-17 02:02 | -19.61457 | -42.55585 | 36991 ft | 485 kts | 47° |
| 2026-04-17 02:03 | -19.57018 | -42.50190 | 36986 ft | 485 kts | 47° |
| 2026-04-17 02:03 | -19.52609 | -42.44775 | 36998 ft | 485 kts | 48° |
| 2026-04-17 02:04 | -19.48955 | -42.40277 | 36986 ft | 485 kts | 47° |
| 2026-04-17 02:04 | -19.44546 | -42.34864 | 36988 ft | 485 kts | 47° |
| 2026-04-17 02:05 | -19.40133 | -42.29468 | 36982 ft | 485 kts | 47° |
| 2026-04-17 02:05 | -19.35711 | -42.24069 | 36980 ft | 485 kts | 47° |
| 2026-04-17 02:06 | -19.31290 | -42.18671 | 36996 ft | 485 kts | 47° |
| 2026-04-17 02:06 | -19.26874 | -42.13278 | 36984 ft | 485 kts | 47° |
| 2026-04-17 02:07 | -19.22477 | -42.07913 | 36989 ft | 485 kts | 47° |
| 2026-04-17 02:07 | -19.18020 | -42.02487 | 36989 ft | 485 kts | 47° |
| 2026-04-17 02:08 | -19.13596 | -41.97102 | 36993 ft | 485 kts | 47° |
| 2026-04-17 02:08 | -19.09185 | -41.91749 | 36981 ft | 486 kts | 47° |
| 2026-04-17 02:09 | -19.04740 | -41.86373 | 36967 ft | 486 kts | 47° |
| 2026-04-17 02:09 | -19.00292 | -41.80982 | 36976 ft | 486 kts | 47° |
| 2026-04-17 02:10 | -18.95816 | -41.75558 | 36973 ft | 487 kts | 47° |
| 2026-04-17 02:10 | -18.91390 | -41.70207 | 36967 ft | 487 kts | 47° |
| 2026-04-17 02:11 | -18.86943 | -41.64813 | 36956 ft | 487 kts | 47° |
| 2026-04-17 02:11 | -18.82478 | -41.59420 | 36973 ft | 488 kts | 47° |
| 2026-04-17 02:12 | -18.78009 | -41.54026 | 36972 ft | 488 kts | 47° |
| 2026-04-17 02:12 | -18.73546 | -41.48639 | 36976 ft | 488 kts | 47° |
| 2026-04-17 02:13 | -18.69077 | -41.43243 | 36976 ft | 488 kts | 47° |
| 2026-04-17 02:13 | -18.64611 | -41.37857 | 36981 ft | 488 kts | 47° |
| 2026-04-17 02:14 | -18.60143 | -41.32473 | 37001 ft | 488 kts | 47° |
| 2026-04-17 02:14 | -18.55664 | -41.27090 | 36983 ft | 488 kts | 47° |
| 2026-04-17 02:15 | -18.51177 | -41.21714 | 36990 ft | 488 kts | 47° |
| 2026-04-17 02:15 | -18.46696 | -41.16345 | 36989 ft | 488 kts | 47° |
| 2026-04-17 02:16 | -18.42215 | -41.10966 | 36996 ft | 488 kts | 47° |
| 2026-04-17 02:16 | -18.37737 | -41.05586 | 36996 ft | 488 kts | 47° |
| 2026-04-17 02:17 | -18.33257 | -41.00209 | 37001 ft | 488 kts | 48° |
| 2026-04-17 02:17 | -18.28772 | -40.94853 | 37002 ft | 488 kts | 47° |
| 2026-04-17 02:18 | -18.24278 | -40.89497 | 37002 ft | 488 kts | 48° |
| 2026-04-17 02:18 | -18.19823 | -40.84169 | 37007 ft | 488 kts | 48° |
| 2026-04-17 02:19 | -18.15341 | -40.78814 | 36995 ft | 488 kts | 48° |
| 2026-04-17 02:19 | -18.10846 | -40.73466 | 36989 ft | 488 kts | 48° |
| 2026-04-17 02:20 | -18.06353 | -40.68120 | 36996 ft | 488 kts | 48° |
| 2026-04-17 02:20 | -18.01865 | -40.62776 | 36999 ft | 488 kts | 48° |
| 2026-04-17 02:21 | -17.97374 | -40.57425 | 36992 ft | 488 kts | 48° |
| 2026-04-17 02:21 | -17.92886 | -40.52085 | 36989 ft | 488 kts | 48° |
| 2026-04-17 02:22 | -17.88385 | -40.46748 | 36999 ft | 488 kts | 48° |
| 2026-04-17 02:22 | -17.83890 | -40.41420 | 37000 ft | 488 kts | 48° |
| 2026-04-17 02:23 | -17.79386 | -40.36084 | 36838 ft | 489 kts | 48° |
| 2026-04-17 02:23 | -17.77057 | -40.33495 | 36590 ft | 487 kts | 41° |
| 2026-04-17 02:23 | -17.74551 | -40.31103 | 36338 ft | 487 kts | 41° |
| 2026-04-17 02:23 | -17.72050 | -40.28725 | 36095 ft | 486 kts | 41° |
| 2026-04-17 02:24 | -17.69573 | -40.26376 | 35856 ft | 486 kts | 41° |
| 2026-04-17 02:24 | -17.67069 | -40.24001 | 35622 ft | 486 kts | 41° |
| 2026-04-17 02:24 | -17.64560 | -40.21619 | 35237 ft | 487 kts | 41° |
| 2026-04-17 02:24 | -17.62027 | -40.19217 | 34399 ft | 494 kts | 41° |
| 2026-04-17 02:25 | -17.59463 | -40.16785 | 33493 ft | 500 kts | 40° |
| 2026-04-17 02:25 | -17.56880 | -40.14327 | 32526 ft | 504 kts | 40° |
| 2026-04-17 02:25 | -17.54273 | -40.11844 | 31595 ft | 507 kts | 40° |
| 2026-04-17 02:25 | -17.51672 | -40.09368 | 30886 ft | 503 kts | 40° |
| 2026-04-17 02:26 | -17.49080 | -40.06901 | 29976 ft | 504 kts | 40° |
| 2026-04-17 02:26 | -17.46482 | -40.04442 | 28837 ft | 503 kts | 40° |
| 2026-04-17 02:26 | -17.43888 | -40.01992 | 27263 ft | 502 kts | 40° |
| 2026-04-17 02:26 | -17.41328 | -39.99573 | 26599 ft | 485 kts | 40° |
| 2026-04-17 02:27 | -17.38871 | -39.97247 | 26081 ft | 473 kts | 40° |
| 2026-04-17 02:27 | -17.36426 | -39.94937 | 25371 ft | 473 kts | 40° |
| 2026-04-17 02:27 | -17.33992 | -39.92638 | 24687 ft | 471 kts | 41° |
| 2026-04-17 02:27 | -17.31563 | -39.90343 | 24002 ft | 471 kts | 41° |
| 2026-04-17 02:28 | -17.29136 | -39.88048 | 23270 ft | 470 kts | 41° |
| 2026-04-17 02:28 | -17.26718 | -39.85764 | 22562 ft | 466 kts | 41° |
| 2026-04-17 02:28 | -17.24322 | -39.83499 | 21873 ft | 462 kts | 41° |
| 2026-04-17 02:28 | -17.21947 | -39.81255 | 21227 ft | 458 kts | 41° |
| 2026-04-17 02:29 | -17.19591 | -39.79032 | 20582 ft | 454 kts | 41° |
| 2026-04-17 02:29 | -17.17264 | -39.76835 | 19968 ft | 450 kts | 41° |
| 2026-04-17 02:29 | -17.14953 | -39.74652 | 19370 ft | 446 kts | 41° |
| 2026-04-17 02:29 | -17.12661 | -39.72492 | 18788 ft | 442 kts | 41° |
| 2026-04-17 02:30 | -17.10382 | -39.70348 | 18211 ft | 438 kts | 41° |
| 2026-04-17 02:30 | -17.08131 | -39.68226 | 17603 ft | 435 kts | 41° |
| 2026-04-17 02:30 | -17.05896 | -39.66118 | 17026 ft | 431 kts | 41° |
| 2026-04-17 02:30 | -17.03676 | -39.64030 | 16446 ft | 428 kts | 41° |
| 2026-04-17 02:31 | -17.01469 | -39.61952 | 15853 ft | 427 kts | 41° |
| 2026-04-17 02:31 | -16.99265 | -39.59876 | 15236 ft | 426 kts | 41° |
| 2026-04-17 02:31 | -16.97080 | -39.57816 | 14711 ft | 421 kts | 41° |
| 2026-04-17 02:31 | -16.94900 | -39.55761 | 14151 ft | 420 kts | 41° |
| 2026-04-17 02:32 | -16.92745 | -39.53735 | 13642 ft | 415 kts | 41° |
| 2026-04-17 02:32 | -16.90605 | -39.51725 | 13035 ft | 411 kts | 41° |
| 2026-04-17 02:32 | -16.88491 | -39.49741 | 12471 ft | 407 kts | 42° |
| 2026-04-17 02:32 | -16.86409 | -39.47786 | 11745 ft | 398 kts | 42° |
| 2026-04-17 02:33 | -16.84367 | -39.45868 | 10929 ft | 391 kts | 42° |
| 2026-04-17 02:33 | -16.82400 | -39.44025 | 10720 ft | 367 kts | 42° |
| 2026-04-17 02:33 | -16.80560 | -39.42301 | 10599 ft | 344 kts | 42° |
| 2026-04-17 02:33 | -16.78830 | -39.40679 | 10483 ft | 325 kts | 42° |
| 2026-04-17 02:34 | -16.77218 | -39.39168 | 10347 ft | 309 kts | 42° |
| 2026-04-17 02:34 | -16.75641 | -39.37692 | 10015 ft | 301 kts | 42° |
| 2026-04-17 02:34 | -16.74105 | -39.36256 | 9932 ft | 296 kts | 42° |
| 2026-04-17 02:34 | -16.72572 | -39.34822 | 9736 ft | 299 kts | 42° |
| 2026-04-17 02:35 | -16.71011 | -39.33364 | 9327 ft | 301 kts | 42° |
| 2026-04-17 02:35 | -16.69458 | -39.31910 | 8943 ft | 302 kts | 42° |
| 2026-04-17 02:35 | -16.66392 | -39.29040 | 7969 ft | 292 kts | 42° |
| 2026-04-17 02:36 | -16.64887 | -39.27632 | 7530 ft | 289 kts | 42° |
| 2026-04-17 02:36 | -16.63393 | -39.26235 | 7141 ft | 290 kts | 43° |
| 2026-04-17 02:36 | -16.61900 | -39.24837 | 6878 ft | 287 kts | 43° |
| 2026-04-17 02:36 | -16.60414 | -39.23449 | 6591 ft | 286 kts | 43° |
| 2026-04-17 02:37 | -16.58953 | -39.22081 | 6453 ft | 276 kts | 43° |
| 2026-04-17 02:37 | -16.57559 | -39.20777 | 6174 ft | 265 kts | 43° |
| 2026-04-17 02:37 | -16.56204 | -39.19509 | 5897 ft | 258 kts | 43° |
| 2026-04-17 02:37 | -16.54896 | -39.18284 | 5775 ft | 247 kts | 43° |
| 2026-04-17 02:38 | -16.53655 | -39.17124 | 5642 ft | 232 kts | 43° |
| 2026-04-17 02:38 | -16.52488 | -39.16034 | 5436 ft | 221 kts | 43° |
| 2026-04-17 02:38 | -16.51353 | -39.14972 | 5076 ft | 218 kts | 43° |
| 2026-04-17 02:38 | -16.50269 | -39.13878 | 4669 ft | 215 kts | 57° |
| 2026-04-17 02:39 | -16.49498 | -39.12561 | 4265 ft | 213 kts | 65° |
| 2026-04-17 02:39 | -16.48827 | -39.11208 | 4110 ft | 206 kts | 66° |
| 2026-04-17 02:39 | -16.48177 | -39.09877 | 3729 ft | 208 kts | 64° |
| 2026-04-17 02:39 | -16.47507 | -39.08548 | 3393 ft | 206 kts | 65° |
| 2026-04-17 02:40 | -16.46569 | -39.07426 | 3042 ft | 210 kts | 32° |
| 2026-04-17 02:40 | -16.45154 | -39.07112 | 3004 ft | 213 kts | 353° |
| 2026-04-17 02:40 | -16.43719 | -39.07543 | 3005 ft | 216 kts | 338° |
| 2026-04-17 02:40 | -16.42355 | -39.08184 | 3005 ft | 215 kts | 324° |
| 2026-04-17 02:41 | -16.41456 | -39.09323 | 3004 ft | 198 kts | 291° |
| 2026-04-17 02:41 | -16.40994 | -39.10670 | 2938 ft | 195 kts | 284° |
| 2026-04-17 02:41 | -16.40608 | -39.12020 | 2520 ft | 195 kts | 284° |
| 2026-04-17 02:41 | -16.40233 | -39.13381 | 2106 ft | 194 kts | 283° |
| 2026-04-17 02:42 | -16.39876 | -39.14664 | 1972 ft | 175 kts | 283° |
| 2026-04-17 02:42 | -16.39551 | -39.15815 | 1818 ft | 159 kts | 283° |
| 2026-04-17 02:42 | -16.39244 | -39.16905 | 1668 ft | 153 kts | 283° |
| 2026-04-17 02:42 | -16.38944 | -39.17972 | 1611 ft | 152 kts | 283° |
| 2026-04-17 02:43 | -16.38645 | -39.19028 | 1607 ft | 152 kts | 283° |
| 2026-04-17 02:43 | -16.38430 | -39.20090 | 1598 ft | 149 kts | 261° |
| 2026-04-17 02:43 | -16.38901 | -39.20975 | 1611 ft | 140 kts | 209° |
| 2026-04-17 02:43 | -16.39813 | -39.21096 | 1610 ft | 136 kts | 157° |
| 2026-04-17 02:44 | -16.40566 | -39.20506 | 1607 ft | 137 kts | 141° |
| 2026-04-17 02:44 | -16.41386 | -39.20013 | 1607 ft | 137 kts | 155° |
| 2026-04-17 02:44 | -16.42259 | -39.19626 | 1608 ft | 137 kts | 158° |
| 2026-04-17 02:44 | -16.43141 | -39.19251 | 1607 ft | 137 kts | 155° |
| 2026-04-17 02:45 | -16.43755 | -39.18527 | 1611 ft | 140 kts | 105° |
| 2026-04-17 02:45 | -16.43893 | -39.17517 | 1592 ft | 141 kts | 110° |
| 2026-04-17 02:45 | -16.44525 | -39.16810 | 1615 ft | 136 kts | 154° |
| 2026-04-17 02:45 | -16.45413 | -39.16460 | 1615 ft | 136 kts | 162° |
| 2026-04-17 02:46 | -16.46174 | -39.15910 | 1609 ft | 138 kts | 120° |
| 2026-04-17 02:46 | -16.46297 | -39.14916 | 1597 ft | 144 kts | 87° |
| 2026-04-17 02:46 | -16.46061 | -39.13894 | 1393 ft | 145 kts | 72° |
| 2026-04-17 02:46 | -16.45576 | -39.12967 | 1176 ft | 146 kts | 57° |
| 2026-04-17 02:47 | -16.44995 | -39.12098 | 1052 ft | 147 kts | 62° |
| 2026-04-17 02:47 | -16.44642 | -39.11133 | 798 ft | 144 kts | 77° |
| 2026-04-17 02:47 | -16.44391 | -39.10115 | 540 ft | 146 kts | 76° |
| 2026-04-17 02:47 | -16.44125 | -39.09094 | 271 ft | 146 kts | 73° |
| 2026-04-17 02:48 | -16.43871 | -39.08163 | 197 ft | 108 kts | 74° |
| 2026-04-17 02:48 | -16.43746 | -39.07703 | 201 ft | 37 kts | 74° |
| 2026-04-17 02:48 | -16.43684 | -39.07473 | 197 ft | 31 kts | 74° |
| 2026-04-17 02:48 | -16.43640 | -39.07294 | 199 ft | 20 kts | 82° |
| 2026-04-17 02:49 | -16.43633 | -39.07196 | 198 ft | 8 kts | 32° |
| 2026-04-17 02:49 | -16.43620 | -39.07214 | 200 ft | 6 kts | 266° |
| 2026-04-17 02:49 | -16.43633 | -39.07283 | 208 ft | 12 kts | 257° |
| 2026-04-17 02:49 | -16.43656 | -39.07377 | 199 ft | 15 kts | 255° |
| 2026-04-17 02:50 | -16.43688 | -39.07494 | 205 ft | 19 kts | 254° |
| 2026-04-17 02:50 | -16.43729 | -39.07640 | 196 ft | 23 kts | 255° |
| 2026-04-17 02:50 | -16.43776 | -39.07813 | 200 ft | 26 kts | 254° |
| 2026-04-17 02:50 | -16.43829 | -39.08007 | 193 ft | 29 kts | 254° |
| 2026-04-17 02:51 | -16.43876 | -39.08138 | 201 ft | 10 kts | 210° |
| 2026-04-17 02:51 | -16.43952 | -39.08136 | 206 ft | 8 kts | 167° |
| 2026-04-17 02:51 | -16.44003 | -39.08115 | 194 ft | 4 kts | 158° |
| 2026-04-17 02:51 | -16.44018 | -39.08119 | 204 ft | 2 kts | 218° |
| 2026-04-17 02:52 | -16.44029 | -39.08140 | 198 ft | 4 kts | 225° |
| 2026-04-17 02:52 | -16.44058 | -39.08135 | 194 ft | 5 kts | 164° |
| 2026-04-17 02:52 | -16.44076 | -39.08130 | 197 ft | 0 kts | 164° |